sensor_id;sensor_type;location;lat;lon;timestamp;P1;durP1;ratioP1;P2;durP2;ratioP2
7450;SDS011;3767;42.688;23.360;2022-10-31T00:02:12;6.90;;;3.70;;
7450;SDS011;3767;42.688;23.360;2022-10-31T00:04:38;12.13;;;4.43;;
7450;SDS011;3767;42.688;23.360;2022-10-31T00:07:06;9.63;;;4.90;;
7450;SDS011;3767;42.688;23.360;2022-10-31T00:09:33;8.20;;;4.83;;
7450;SDS011;3767;42.688;23.360;2022-10-31T00:12:00;7.83;;;4.57;;
7450;SDS011;3767;42.688;23.360;2022-10-31T00:14:26;6.37;;;4.33;;
7450;SDS011;3767;42.688;23.360;2022-10-31T00:16:53;5.93;;;3.87;;
7450;SDS011;3767;42.688;23.360;2022-10-31T00:19:19;6.77;;;4.13;;
7450;SDS011;3767;42.688;23.360;2022-10-31T00:21:45;8.20;;;4.23;;
7450;SDS011;3767;42.688;23.360;2022-10-31T00:24:13;7.93;;;3.90;;
7450;SDS011;3767;42.688;23.360;2022-10-31T00:26:40;8.40;;;3.87;;
7450;SDS011;3767;42.688;23.360;2022-10-31T00:29:06;6.27;;;4.40;;
7450;SDS011;3767;42.688;23.360;2022-10-31T00:31:33;6.50;;;4.17;;
7450;SDS011;3767;42.688;23.360;2022-10-31T00:33:59;6.63;;;3.90;;
7450;SDS011;3767;42.688;23.360;2022-10-31T00:36:27;6.20;;;3.93;;
7450;SDS011;3767;42.688;23.360;2022-10-31T00:38:54;5.60;;;4.10;;
7450;SDS011;3767;42.688;23.360;2022-10-31T00:41:22;8.07;;;4.83;;
7450;SDS011;3767;42.688;23.360;2022-10-31T00:43:48;10.37;;;5.23;;
7450;SDS011;3767;42.688;23.360;2022-10-31T00:46:15;11.13;;;4.70;;
7450;SDS011;3767;42.688;23.360;2022-10-31T00:48:41;9.60;;;4.87;;
7450;SDS011;3767;42.688;23.360;2022-10-31T00:51:08;7.73;;;4.67;;
7450;SDS011;3767;42.688;23.360;2022-10-31T00:53:35;6.33;;;4.37;;
7450;SDS011;3767;42.688;23.360;2022-10-31T00:56:01;5.80;;;4.10;;
7450;SDS011;3767;42.688;23.360;2022-10-31T00:58:31;6.93;;;4.30;;
7450;SDS011;3767;42.688;23.360;2022-10-31T01:00:57;6.80;;;4.30;;
7450;SDS011;3767;42.688;23.360;2022-10-31T01:03:24;6.97;;;4.43;;
7450;SDS011;3767;42.688;23.360;2022-10-31T01:05:55;7.80;;;4.10;;
7450;SDS011;3767;42.688;23.360;2022-10-31T01:08:21;8.13;;;4.77;;
7450;SDS011;3767;42.688;23.360;2022-10-31T01:10:57;9.57;;;4.63;;
7450;SDS011;3767;42.688;23.360;2022-10-31T01:13:23;9.63;;;4.93;;
7450;SDS011;3767;42.688;23.360;2022-10-31T01:15:54;8.53;;;5.53;;
7450;SDS011;3767;42.688;23.360;2022-10-31T01:18:21;8.43;;;5.17;;
7450;SDS011;3767;42.688;23.360;2022-10-31T01:20:47;13.17;;;6.43;;
7450;SDS011;3767;42.688;23.360;2022-10-31T01:23:22;9.77;;;6.00;;
7450;SDS011;3767;42.688;23.360;2022-10-31T01:25:49;13.20;;;7.00;;
7450;SDS011;3767;42.688;23.360;2022-10-31T01:28:15;10.23;;;6.70;;
7450;SDS011;3767;42.688;23.360;2022-10-31T01:30:42;16.23;;;7.90;;
7450;SDS011;3767;42.688;23.360;2022-10-31T01:33:09;15.17;;;8.40;;
7450;SDS011;3767;42.688;23.360;2022-10-31T01:35:36;15.77;;;7.83;;
7450;SDS011;3767;42.688;23.360;2022-10-31T01:38:02;13.43;;;7.57;;
7450;SDS011;3767;42.688;23.360;2022-10-31T01:40:29;14.20;;;7.97;;
7450;SDS011;3767;42.688;23.360;2022-10-31T01:42:56;16.00;;;8.00;;
7450;SDS011;3767;42.688;23.360;2022-10-31T01:45:22;19.87;;;9.47;;
7450;SDS011;3767;42.688;23.360;2022-10-31T01:47:49;11.60;;;7.57;;
7450;SDS011;3767;42.688;23.360;2022-10-31T01:50:22;17.20;;;8.50;;
7450;SDS011;3767;42.688;23.360;2022-10-31T01:52:52;16.50;;;8.50;;
7450;SDS011;3767;42.688;23.360;2022-10-31T01:55:20;12.90;;;8.77;;
7450;SDS011;3767;42.688;23.360;2022-10-31T01:57:48;15.30;;;8.43;;
7450;SDS011;3767;42.688;23.360;2022-10-31T02:00:16;16.60;;;8.10;;
7450;SDS011;3767;42.688;23.360;2022-10-31T02:02:43;16.27;;;9.03;;
7450;SDS011;3767;42.688;23.360;2022-10-31T02:05:12;14.63;;;8.43;;
7450;SDS011;3767;42.688;23.360;2022-10-31T02:07:43;15.10;;;8.33;;
7450;SDS011;3767;42.688;23.360;2022-10-31T02:10:11;19.93;;;9.03;;
7450;SDS011;3767;42.688;23.360;2022-10-31T02:12:38;20.40;;;9.30;;
7450;SDS011;3767;42.688;23.360;2022-10-31T02:15:06;23.67;;;9.40;;
7450;SDS011;3767;42.688;23.360;2022-10-31T02:17:32;18.20;;;9.30;;
7450;SDS011;3767;42.688;23.360;2022-10-31T02:20:01;18.13;;;9.47;;
7450;SDS011;3767;42.688;23.360;2022-10-31T02:22:33;18.43;;;8.97;;
7450;SDS011;3767;42.688;23.360;2022-10-31T02:25:07;18.57;;;9.33;;
7450;SDS011;3767;42.688;23.360;2022-10-31T02:27:51;20.27;;;8.80;;
7450;SDS011;3767;42.688;23.360;2022-10-31T02:30:23;17.73;;;8.97;;
7450;SDS011;3767;42.688;23.360;2022-10-31T02:32:54;20.57;;;8.83;;
7450;SDS011;3767;42.688;23.360;2022-10-31T02:35:24;19.97;;;9.17;;
7450;SDS011;3767;42.688;23.360;2022-10-31T02:37:55;16.13;;;8.20;;
7450;SDS011;3767;42.688;23.360;2022-10-31T02:40:23;18.60;;;9.03;;
7450;SDS011;3767;42.688;23.360;2022-10-31T02:42:55;20.83;;;8.63;;
7450;SDS011;3767;42.688;23.360;2022-10-31T02:45:25;15.23;;;7.60;;
7450;SDS011;3767;42.688;23.360;2022-10-31T02:47:55;14.47;;;8.10;;
7450;SDS011;3767;42.688;23.360;2022-10-31T02:50:25;16.80;;;8.40;;
7450;SDS011;3767;42.688;23.360;2022-10-31T02:52:52;15.43;;;8.27;;
7450;SDS011;3767;42.688;23.360;2022-10-31T02:58:04;16.70;;;7.77;;
7450;SDS011;3767;42.688;23.360;2022-10-31T03:00:34;12.27;;;6.63;;
7450;SDS011;3767;42.688;23.360;2022-10-31T03:03:05;15.67;;;7.47;;
7450;SDS011;3767;42.688;23.360;2022-10-31T03:05:38;13.53;;;7.53;;
7450;SDS011;3767;42.688;23.360;2022-10-31T03:08:07;12.30;;;7.20;;
7450;SDS011;3767;42.688;23.360;2022-10-31T03:10:38;13.53;;;6.97;;
7450;SDS011;3767;42.688;23.360;2022-10-31T03:13:08;13.20;;;7.20;;
7450;SDS011;3767;42.688;23.360;2022-10-31T03:15:36;15.20;;;7.50;;
7450;SDS011;3767;42.688;23.360;2022-10-31T03:18:06;15.33;;;7.30;;
7450;SDS011;3767;42.688;23.360;2022-10-31T03:20:34;14.80;;;6.53;;
7450;SDS011;3767;42.688;23.360;2022-10-31T03:23:02;11.03;;;5.87;;
7450;SDS011;3767;42.688;23.360;2022-10-31T03:25:30;11.70;;;6.50;;
7450;SDS011;3767;42.688;23.360;2022-10-31T03:27:57;11.93;;;6.23;;
7450;SDS011;3767;42.688;23.360;2022-10-31T03:30:24;17.63;;;6.60;;
7450;SDS011;3767;42.688;23.360;2022-10-31T03:32:51;13.43;;;6.30;;
7450;SDS011;3767;42.688;23.360;2022-10-31T03:35:20;13.00;;;6.17;;
7450;SDS011;3767;42.688;23.360;2022-10-31T03:37:49;13.80;;;6.80;;
7450;SDS011;3767;42.688;23.360;2022-10-31T03:40:16;12.13;;;7.07;;
7450;SDS011;3767;42.688;23.360;2022-10-31T03:42:46;14.67;;;6.63;;
7450;SDS011;3767;42.688;23.360;2022-10-31T03:45:15;18.87;;;7.30;;
7450;SDS011;3767;42.688;23.360;2022-10-31T03:47:45;14.03;;;6.60;;
7450;SDS011;3767;42.688;23.360;2022-10-31T03:50:13;18.80;;;7.33;;
7450;SDS011;3767;42.688;23.360;2022-10-31T03:52:43;12.10;;;6.93;;
7450;SDS011;3767;42.688;23.360;2022-10-31T03:55:13;14.53;;;7.40;;
7450;SDS011;3767;42.688;23.360;2022-10-31T03:57:43;13.00;;;7.10;;
7450;SDS011;3767;42.688;23.360;2022-10-31T04:00:12;16.73;;;7.33;;
7450;SDS011;3767;42.688;23.360;2022-10-31T04:02:40;13.83;;;7.33;;
7450;SDS011;3767;42.688;23.360;2022-10-31T04:05:07;14.63;;;8.30;;
7450;SDS011;3767;42.688;23.360;2022-10-31T04:07:35;23.40;;;11.30;;
7450;SDS011;3767;42.688;23.360;2022-10-31T04:10:05;32.63;;;15.90;;
7450;SDS011;3767;42.688;23.360;2022-10-31T04:12:32;30.60;;;14.73;;
7450;SDS011;3767;42.688;23.360;2022-10-31T04:15:00;23.53;;;12.10;;
7450;SDS011;3767;42.688;23.360;2022-10-31T04:17:29;25.97;;;12.70;;
7450;SDS011;3767;42.688;23.360;2022-10-31T04:19:58;21.03;;;12.67;;
7450;SDS011;3767;42.688;23.360;2022-10-31T04:22:25;23.03;;;12.33;;
7450;SDS011;3767;42.688;23.360;2022-10-31T04:24:51;24.33;;;11.97;;
7450;SDS011;3767;42.688;23.360;2022-10-31T04:27:19;17.67;;;10.47;;
7450;SDS011;3767;42.688;23.360;2022-10-31T04:29:45;22.20;;;10.53;;
7450;SDS011;3767;42.688;23.360;2022-10-31T04:32:12;23.20;;;10.07;;
7450;SDS011;3767;42.688;23.360;2022-10-31T04:34:38;24.57;;;10.83;;
7450;SDS011;3767;42.688;23.360;2022-10-31T04:37:05;23.23;;;11.03;;
7450;SDS011;3767;42.688;23.360;2022-10-31T04:39:31;15.37;;;9.50;;
7450;SDS011;3767;42.688;23.360;2022-10-31T04:41:58;20.57;;;8.90;;
7450;SDS011;3767;42.688;23.360;2022-10-31T04:44:26;12.47;;;8.53;;
7450;SDS011;3767;42.688;23.360;2022-10-31T04:46:53;15.43;;;8.43;;
7450;SDS011;3767;42.688;23.360;2022-10-31T04:49:19;19.73;;;8.70;;
7450;SDS011;3767;42.688;23.360;2022-10-31T04:51:46;21.43;;;9.23;;
7450;SDS011;3767;42.688;23.360;2022-10-31T04:54:12;15.90;;;8.97;;
7450;SDS011;3767;42.688;23.360;2022-10-31T04:56:39;14.37;;;9.20;;
7450;SDS011;3767;42.688;23.360;2022-10-31T04:59:05;39.60;;;22.90;;
7450;SDS011;3767;42.688;23.360;2022-10-31T05:01:33;43.40;;;24.20;;
7450;SDS011;3767;42.688;23.360;2022-10-31T05:03:59;36.00;;;20.73;;
7450;SDS011;3767;42.688;23.360;2022-10-31T05:06:26;46.90;;;24.87;;
7450;SDS011;3767;42.688;23.360;2022-10-31T05:08:52;49.57;;;25.37;;
7450;SDS011;3767;42.688;23.360;2022-10-31T05:11:19;33.83;;;17.23;;
7450;SDS011;3767;42.688;23.360;2022-10-31T05:13:45;36.80;;;19.67;;
7450;SDS011;3767;42.688;23.360;2022-10-31T05:16:12;36.27;;;19.40;;
7450;SDS011;3767;42.688;23.360;2022-10-31T05:18:40;32.07;;;18.40;;
7450;SDS011;3767;42.688;23.360;2022-10-31T05:21:06;48.27;;;23.90;;
7450;SDS011;3767;42.688;23.360;2022-10-31T05:23:33;47.00;;;23.97;;
7450;SDS011;3767;42.688;23.360;2022-10-31T05:25:59;47.87;;;24.70;;
7450;SDS011;3767;42.688;23.360;2022-10-31T05:28:26;41.87;;;21.17;;
7450;SDS011;3767;42.688;23.360;2022-10-31T05:30:52;46.97;;;20.30;;
7450;SDS011;3767;42.688;23.360;2022-10-31T05:33:18;46.57;;;20.97;;
7450;SDS011;3767;42.688;23.360;2022-10-31T05:35:46;39.93;;;21.17;;
7450;SDS011;3767;42.688;23.360;2022-10-31T05:38:13;31.13;;;17.73;;
7450;SDS011;3767;42.688;23.360;2022-10-31T05:40:39;43.93;;;21.83;;
7450;SDS011;3767;42.688;23.360;2022-10-31T05:43:06;47.00;;;21.87;;
7450;SDS011;3767;42.688;23.360;2022-10-31T05:45:32;37.17;;;18.10;;
7450;SDS011;3767;42.688;23.360;2022-10-31T05:47:59;37.30;;;19.20;;
7450;SDS011;3767;42.688;23.360;2022-10-31T05:50:26;33.90;;;18.20;;
7450;SDS011;3767;42.688;23.360;2022-10-31T05:52:55;31.73;;;18.47;;
7450;SDS011;3767;42.688;23.360;2022-10-31T05:55:22;31.57;;;17.23;;
7450;SDS011;3767;42.688;23.360;2022-10-31T05:57:48;29.73;;;15.47;;
7450;SDS011;3767;42.688;23.360;2022-10-31T06:00:15;40.63;;;16.60;;
7450;SDS011;3767;42.688;23.360;2022-10-31T06:02:41;30.67;;;14.83;;
7450;SDS011;3767;42.688;23.360;2022-10-31T06:05:08;33.13;;;14.13;;
7450;SDS011;3767;42.688;23.360;2022-10-31T06:07:34;24.67;;;12.63;;
7450;SDS011;3767;42.688;23.360;2022-10-31T06:10:04;24.83;;;10.60;;
7450;SDS011;3767;42.688;23.360;2022-10-31T06:12:30;23.27;;;11.37;;
7450;SDS011;3767;42.688;23.360;2022-10-31T06:14:57;19.27;;;10.60;;
7450;SDS011;3767;42.688;23.360;2022-10-31T06:17:23;24.57;;;11.20;;
7450;SDS011;3767;42.688;23.360;2022-10-31T06:19:50;21.37;;;10.10;;
7450;SDS011;3767;42.688;23.360;2022-10-31T06:22:16;22.93;;;10.73;;
7450;SDS011;3767;42.688;23.360;2022-10-31T06:24:43;15.03;;;9.03;;
7450;SDS011;3767;42.688;23.360;2022-10-31T06:27:11;17.77;;;10.93;;
7450;SDS011;3767;42.688;23.360;2022-10-31T06:29:37;24.73;;;10.57;;
7450;SDS011;3767;42.688;23.360;2022-10-31T06:32:04;27.63;;;11.47;;
7450;SDS011;3767;42.688;23.360;2022-10-31T06:34:30;22.80;;;10.37;;
7450;SDS011;3767;42.688;23.360;2022-10-31T06:36:57;17.77;;;9.27;;
7450;SDS011;3767;42.688;23.360;2022-10-31T06:39:23;18.07;;;9.03;;
7450;SDS011;3767;42.688;23.360;2022-10-31T06:41:50;24.23;;;11.37;;
7450;SDS011;3767;42.688;23.360;2022-10-31T06:44:17;42.80;;;21.50;;
7450;SDS011;3767;42.688;23.360;2022-10-31T06:46:45;23.50;;;11.23;;
7450;SDS011;3767;42.688;23.360;2022-10-31T06:49:12;18.50;;;10.63;;
7450;SDS011;3767;42.688;23.360;2022-10-31T06:51:38;22.27;;;11.20;;
7450;SDS011;3767;42.688;23.360;2022-10-31T06:54:05;20.67;;;10.93;;
7450;SDS011;3767;42.688;23.360;2022-10-31T06:56:31;20.80;;;10.73;;
7450;SDS011;3767;42.688;23.360;2022-10-31T06:58:58;24.80;;;11.90;;
7450;SDS011;3767;42.688;23.360;2022-10-31T07:01:25;19.60;;;11.40;;
7450;SDS011;3767;42.688;23.360;2022-10-31T07:03:52;33.10;;;15.83;;
7450;SDS011;3767;42.688;23.360;2022-10-31T07:06:18;22.60;;;10.60;;
7450;SDS011;3767;42.688;23.360;2022-10-31T07:08:45;20.17;;;12.13;;
7450;SDS011;3767;42.688;23.360;2022-10-31T07:11:11;23.37;;;11.37;;
7450;SDS011;3767;42.688;23.360;2022-10-31T07:13:38;24.52;;;10.40;;
7450;SDS011;3767;42.688;23.360;2022-10-31T07:16:04;24.45;;;11.35;;
7450;SDS011;3767;42.688;23.360;2022-10-31T07:18:33;18.48;;;10.20;;
7450;SDS011;3767;42.688;23.360;2022-10-31T07:21:00;20.38;;;10.15;;
7450;SDS011;3767;42.688;23.360;2022-10-31T07:23:26;16.83;;;10.50;;
7450;SDS011;3767;42.688;23.360;2022-10-31T07:25:54;16.42;;;11.15;;
7450;SDS011;3767;42.688;23.360;2022-10-31T07:28:21;25.02;;;12.07;;
7450;SDS011;3767;42.688;23.360;2022-10-31T07:30:49;20.30;;;12.13;;
7450;SDS011;3767;42.688;23.360;2022-10-31T07:33:15;24.50;;;12.70;;
7450;SDS011;3767;42.688;23.360;2022-10-31T07:35:43;21.10;;;11.85;;
7450;SDS011;3767;42.688;23.360;2022-10-31T07:38:10;25.42;;;13.30;;
7450;SDS011;3767;42.688;23.360;2022-10-31T07:40:37;22.20;;;13.02;;
7450;SDS011;3767;42.688;23.360;2022-10-31T07:43:04;24.48;;;13.40;;
7450;SDS011;3767;42.688;23.360;2022-10-31T07:45:30;23.88;;;14.50;;
7450;SDS011;3767;42.688;23.360;2022-10-31T07:47:57;27.30;;;14.00;;
7450;SDS011;3767;42.688;23.360;2022-10-31T07:50:24;31.08;;;14.95;;
7450;SDS011;3767;42.688;23.360;2022-10-31T07:52:59;26.27;;;15.13;;
7450;SDS011;3767;42.688;23.360;2022-10-31T07:55:26;26.13;;;15.55;;
7450;SDS011;3767;42.688;23.360;2022-10-31T07:57:56;27.60;;;16.10;;
7450;SDS011;3767;42.688;23.360;2022-10-31T08:00:22;32.63;;;16.02;;
7450;SDS011;3767;42.688;23.360;2022-10-31T08:02:55;26.08;;;15.82;;
7450;SDS011;3767;42.688;23.360;2022-10-31T08:05:22;23.73;;;15.88;;
7450;SDS011;3767;42.688;23.360;2022-10-31T08:07:48;31.02;;;17.48;;
7450;SDS011;3767;42.688;23.360;2022-10-31T08:10:16;29.10;;;15.52;;
7450;SDS011;3767;42.688;23.360;2022-10-31T08:12:43;25.10;;;15.20;;
7450;SDS011;3767;42.688;23.360;2022-10-31T08:15:09;22.80;;;15.75;;
7450;SDS011;3767;42.688;23.360;2022-10-31T08:17:36;25.08;;;16.40;;
7450;SDS011;3767;42.688;23.360;2022-10-31T08:20:03;27.80;;;15.98;;
7450;SDS011;3767;42.688;23.360;2022-10-31T08:22:30;23.77;;;15.60;;
7450;SDS011;3767;42.688;23.360;2022-10-31T08:24:56;24.33;;;15.15;;
7450;SDS011;3767;42.688;23.360;2022-10-31T08:27:24;19.67;;;14.23;;
7450;SDS011;3767;42.688;23.360;2022-10-31T08:29:50;23.58;;;14.10;;
7450;SDS011;3767;42.688;23.360;2022-10-31T08:32:17;25.50;;;14.82;;
7450;SDS011;3767;42.688;23.360;2022-10-31T08:34:43;28.75;;;15.65;;
7450;SDS011;3767;42.688;23.360;2022-10-31T08:37:10;25.80;;;15.55;;
7450;SDS011;3767;42.688;23.360;2022-10-31T08:39:36;26.00;;;15.10;;
7450;SDS011;3767;42.688;23.360;2022-10-31T08:42:03;26.08;;;15.93;;
7450;SDS011;3767;42.688;23.360;2022-10-31T08:44:30;27.23;;;16.63;;
7450;SDS011;3767;42.688;23.360;2022-10-31T08:46:57;29.63;;;16.35;;
7450;SDS011;3767;42.688;23.360;2022-10-31T08:49:23;26.65;;;15.05;;
7450;SDS011;3767;42.688;23.360;2022-10-31T08:51:50;27.83;;;15.85;;
7450;SDS011;3767;42.688;23.360;2022-10-31T08:54:16;22.88;;;14.63;;
7450;SDS011;3767;42.688;23.360;2022-10-31T08:56:43;23.40;;;15.63;;
7450;SDS011;3767;42.688;23.360;2022-10-31T08:59:09;25.15;;;15.02;;
7450;SDS011;3767;42.688;23.360;2022-10-31T09:01:37;23.77;;;14.82;;
7450;SDS011;3767;42.688;23.360;2022-10-31T09:04:04;20.65;;;13.98;;
7450;SDS011;3767;42.688;23.360;2022-10-31T09:06:30;32.28;;;15.82;;
7450;SDS011;3767;42.688;23.360;2022-10-31T09:08:56;19.30;;;13.90;;
7450;SDS011;3767;42.688;23.360;2022-10-31T09:11:23;27.10;;;14.70;;
7450;SDS011;3767;42.688;23.360;2022-10-31T09:13:51;27.90;;;15.05;;
7450;SDS011;3767;42.688;23.360;2022-10-31T09:16:18;34.22;;;15.68;;
7450;SDS011;3767;42.688;23.360;2022-10-31T09:18:45;23.98;;;14.60;;
7450;SDS011;3767;42.688;23.360;2022-10-31T09:21:12;27.73;;;14.23;;
7450;SDS011;3767;42.688;23.360;2022-10-31T09:23:38;20.73;;;14.20;;
7450;SDS011;3767;42.688;23.360;2022-10-31T09:26:05;16.40;;;13.48;;
7450;SDS011;3767;42.688;23.360;2022-10-31T09:28:31;23.35;;;13.32;;
7450;SDS011;3767;42.688;23.360;2022-10-31T09:30:58;30.88;;;14.30;;
7450;SDS011;3767;42.688;23.360;2022-10-31T09:33:25;23.10;;;14.25;;
7450;SDS011;3767;42.688;23.360;2022-10-31T09:35:52;21.27;;;13.10;;
7450;SDS011;3767;42.688;23.360;2022-10-31T09:38:19;30.55;;;13.18;;
7450;SDS011;3767;42.688;23.360;2022-10-31T09:40:47;17.90;;;13.00;;
7450;SDS011;3767;42.688;23.360;2022-10-31T09:43:15;21.02;;;12.43;;
7450;SDS011;3767;42.688;23.360;2022-10-31T09:45:49;22.13;;;12.35;;
7450;SDS011;3767;42.688;23.360;2022-10-31T09:48:20;21.63;;;11.80;;
7450;SDS011;3767;42.688;23.360;2022-10-31T09:50:51;19.05;;;12.20;;
7450;SDS011;3767;42.688;23.360;2022-10-31T09:53:22;16.10;;;11.30;;
7450;SDS011;3767;42.688;23.360;2022-10-31T09:55:49;22.33;;;10.95;;
7450;SDS011;3767;42.688;23.360;2022-10-31T09:58:16;21.05;;;10.93;;
7450;SDS011;3767;42.688;23.360;2022-10-31T10:00:44;20.08;;;11.20;;
7450;SDS011;3767;42.688;23.360;2022-10-31T10:03:16;21.17;;;10.82;;
7450;SDS011;3767;42.688;23.360;2022-10-31T10:05:50;18.80;;;11.30;;
7450;SDS011;3767;42.688;23.360;2022-10-31T10:08:18;20.77;;;10.43;;
7450;SDS011;3767;42.688;23.360;2022-10-31T10:10:49;17.77;;;10.52;;
7450;SDS011;3767;42.688;23.360;2022-10-31T10:16:03;21.40;;;8.88;;
7450;SDS011;3767;42.688;23.360;2022-10-31T10:18:32;15.50;;;8.82;;
7450;SDS011;3767;42.688;23.360;2022-10-31T10:21:09;17.98;;;8.77;;
7450;SDS011;3767;42.688;23.360;2022-10-31T10:23:41;20.38;;;9.95;;
7450;SDS011;3767;42.688;23.360;2022-10-31T10:26:13;18.73;;;9.32;;
7450;SDS011;3767;42.688;23.360;2022-10-31T10:28:42;16.80;;;9.55;;
7450;SDS011;3767;42.688;23.360;2022-10-31T10:31:11;22.08;;;9.55;;
7450;SDS011;3767;42.688;23.360;2022-10-31T10:33:40;17.17;;;9.30;;
7450;SDS011;3767;42.688;23.360;2022-10-31T10:36:10;16.17;;;7.75;;
7450;SDS011;3767;42.688;23.360;2022-10-31T10:38:39;12.43;;;6.55;;
7450;SDS011;3767;42.688;23.360;2022-10-31T10:41:12;13.02;;;6.07;;
7450;SDS011;3767;42.688;23.360;2022-10-31T10:43:40;18.00;;;6.60;;
7450;SDS011;3767;42.688;23.360;2022-10-31T10:46:17;10.38;;;5.93;;
7450;SDS011;3767;42.688;23.360;2022-10-31T10:49:04;11.77;;;5.93;;
7450;SDS011;3767;42.688;23.360;2022-10-31T10:51:33;10.98;;;6.07;;
7450;SDS011;3767;42.688;23.360;2022-10-31T10:54:04;12.88;;;5.63;;
7450;SDS011;3767;42.688;23.360;2022-10-31T10:56:47;12.15;;;6.60;;
7450;SDS011;3767;42.688;23.360;2022-10-31T10:59:16;10.32;;;6.30;;
7450;SDS011;3767;42.688;23.360;2022-10-31T11:01:44;11.63;;;5.55;;
7450;SDS011;3767;42.688;23.360;2022-10-31T11:04:23;11.40;;;5.15;;
7450;SDS011;3767;42.688;23.360;2022-10-31T11:06:57;8.32;;;5.13;;
7450;SDS011;3767;42.688;23.360;2022-10-31T11:09:24;12.07;;;4.20;;
7450;SDS011;3767;42.688;23.360;2022-10-31T11:11:52;11.27;;;5.35;;
7450;SDS011;3767;42.688;23.360;2022-10-31T11:14:19;13.52;;;5.03;;
7450;SDS011;3767;42.688;23.360;2022-10-31T11:16:48;13.63;;;5.10;;
7450;SDS011;3767;42.688;23.360;2022-10-31T11:19:16;15.98;;;5.97;;
7450;SDS011;3767;42.688;23.360;2022-10-31T11:21:43;9.07;;;4.60;;
7450;SDS011;3767;42.688;23.360;2022-10-31T11:24:14;13.27;;;4.93;;
7450;SDS011;3767;42.688;23.360;2022-10-31T11:26:41;9.50;;;4.60;;
7450;SDS011;3767;42.688;23.360;2022-10-31T11:29:13;6.35;;;4.60;;
7450;SDS011;3767;42.688;23.360;2022-10-31T11:31:40;11.43;;;4.68;;
7450;SDS011;3767;42.688;23.360;2022-10-31T11:34:11;7.22;;;4.05;;
7450;SDS011;3767;42.688;23.360;2022-10-31T11:36:39;9.88;;;7.75;;
7450;SDS011;3767;42.688;23.360;2022-10-31T11:39:13;11.07;;;6.18;;
7450;SDS011;3767;42.688;23.360;2022-10-31T11:41:41;11.60;;;4.55;;
7450;SDS011;3767;42.688;23.360;2022-10-31T11:44:10;8.20;;;4.97;;
7450;SDS011;3767;42.688;23.360;2022-10-31T11:46:40;13.15;;;4.30;;
7450;SDS011;3767;42.688;23.360;2022-10-31T11:49:11;7.22;;;4.10;;
7450;SDS011;3767;42.688;23.360;2022-10-31T11:51:38;13.30;;;4.75;;
7450;SDS011;3767;42.688;23.360;2022-10-31T11:54:06;6.68;;;3.90;;
7450;SDS011;3767;42.688;23.360;2022-10-31T11:56:42;7.80;;;3.83;;
7450;SDS011;3767;42.688;23.360;2022-10-31T11:59:15;9.52;;;4.43;;
7450;SDS011;3767;42.688;23.360;2022-10-31T12:01:47;9.25;;;3.90;;
7450;SDS011;3767;42.688;23.360;2022-10-31T12:04:14;6.47;;;4.03;;
7450;SDS011;3767;42.688;23.360;2022-10-31T12:06:42;7.70;;;4.35;;
7450;SDS011;3767;42.688;23.360;2022-10-31T12:09:14;9.77;;;4.28;;
7450;SDS011;3767;42.688;23.360;2022-10-31T12:11:46;9.30;;;4.30;;
7450;SDS011;3767;42.688;23.360;2022-10-31T12:14:19;11.32;;;4.60;;
7450;SDS011;3767;42.688;23.360;2022-10-31T12:16:52;10.98;;;4.65;;
7450;SDS011;3767;42.688;23.360;2022-10-31T12:19:24;10.13;;;4.40;;
7450;SDS011;3767;42.688;23.360;2022-10-31T12:22:02;14.77;;;4.20;;
7450;SDS011;3767;42.688;23.360;2022-10-31T12:24:43;10.20;;;3.88;;
7450;SDS011;3767;42.688;23.360;2022-10-31T12:27:14;11.65;;;4.00;;
7450;SDS011;3767;42.688;23.360;2022-10-31T12:29:48;15.93;;;4.05;;
7450;SDS011;3767;42.688;23.360;2022-10-31T12:32:24;10.57;;;4.32;;
7450;SDS011;3767;42.688;23.360;2022-10-31T12:34:58;11.73;;;4.05;;
7450;SDS011;3767;42.688;23.360;2022-10-31T12:37:31;7.43;;;4.15;;
7450;SDS011;3767;42.688;23.360;2022-10-31T12:40:03;10.40;;;4.68;;
7450;SDS011;3767;42.688;23.360;2022-10-31T12:42:38;10.88;;;3.83;;
7450;SDS011;3767;42.688;23.360;2022-10-31T12:45:14;8.98;;;4.25;;
7450;SDS011;3767;42.688;23.360;2022-10-31T12:47:54;7.90;;;3.97;;
7450;SDS011;3767;42.688;23.360;2022-10-31T12:50:27;7.60;;;4.05;;
7450;SDS011;3767;42.688;23.360;2022-10-31T12:52:57;7.72;;;4.28;;
7450;SDS011;3767;42.688;23.360;2022-10-31T12:55:31;8.93;;;4.05;;
7450;SDS011;3767;42.688;23.360;2022-10-31T12:58:03;8.90;;;3.95;;
7450;SDS011;3767;42.688;23.360;2022-10-31T13:00:34;9.70;;;4.13;;
7450;SDS011;3767;42.688;23.360;2022-10-31T13:03:05;12.55;;;3.80;;
7450;SDS011;3767;42.688;23.360;2022-10-31T13:05:40;13.20;;;4.30;;
7450;SDS011;3767;42.688;23.360;2022-10-31T13:08:09;8.90;;;4.00;;
7450;SDS011;3767;42.688;23.360;2022-10-31T13:10:37;13.88;;;4.75;;
7450;SDS011;3767;42.688;23.360;2022-10-31T13:13:07;13.18;;;4.10;;
7450;SDS011;3767;42.688;23.360;2022-10-31T13:15:40;11.10;;;4.25;;
7450;SDS011;3767;42.688;23.360;2022-10-31T13:18:12;8.23;;;3.78;;
7450;SDS011;3767;42.688;23.360;2022-10-31T13:20:41;9.95;;;4.20;;
7450;SDS011;3767;42.688;23.360;2022-10-31T13:23:10;7.60;;;3.88;;
7450;SDS011;3767;42.688;23.360;2022-10-31T13:25:40;13.00;;;4.30;;
7450;SDS011;3767;42.688;23.360;2022-10-31T13:28:09;16.60;;;4.75;;
7450;SDS011;3767;42.688;23.360;2022-10-31T13:30:39;10.13;;;4.32;;
7450;SDS011;3767;42.688;23.360;2022-10-31T13:33:07;11.70;;;6.22;;
7450;SDS011;3767;42.688;23.360;2022-10-31T13:35:39;11.85;;;4.18;;
7450;SDS011;3767;42.688;23.360;2022-10-31T13:38:14;7.53;;;3.70;;
7450;SDS011;3767;42.688;23.360;2022-10-31T13:40:44;9.43;;;3.85;;
7450;SDS011;3767;42.688;23.360;2022-10-31T13:43:25;10.20;;;3.53;;
7450;SDS011;3767;42.688;23.360;2022-10-31T13:45:53;11.73;;;4.55;;
7450;SDS011;3767;42.688;23.360;2022-10-31T13:51:11;9.10;;;4.18;;
7450;SDS011;3767;42.688;23.360;2022-10-31T13:53:43;18.50;;;10.35;;
7450;SDS011;3767;42.688;23.360;2022-10-31T13:56:20;8.50;;;4.45;;
7450;SDS011;3767;42.688;23.360;2022-10-31T13:59:15;9.98;;;4.43;;
7450;SDS011;3767;42.688;23.360;2022-10-31T14:01:48;12.57;;;4.53;;
7450;SDS011;3767;42.688;23.360;2022-10-31T14:04:16;15.93;;;5.22;;
7450;SDS011;3767;42.688;23.360;2022-10-31T14:06:47;18.48;;;5.15;;
7450;SDS011;3767;42.688;23.360;2022-10-31T14:09:19;19.23;;;6.00;;
7450;SDS011;3767;42.688;23.360;2022-10-31T14:11:46;15.40;;;6.50;;
7450;SDS011;3767;42.688;23.360;2022-10-31T14:14:13;18.80;;;6.85;;
7450;SDS011;3767;42.688;23.360;2022-10-31T14:16:40;17.60;;;6.60;;
7450;SDS011;3767;42.688;23.360;2022-10-31T14:19:13;14.15;;;6.38;;
7450;SDS011;3767;42.688;23.360;2022-10-31T14:21:41;15.77;;;5.38;;
7450;SDS011;3767;42.688;23.360;2022-10-31T14:24:14;11.50;;;5.30;;
7450;SDS011;3767;42.688;23.360;2022-10-31T14:26:51;14.15;;;5.40;;
7450;SDS011;3767;42.688;23.360;2022-10-31T14:29:22;11.88;;;4.70;;
7450;SDS011;3767;42.688;23.360;2022-10-31T14:31:53;13.02;;;5.53;;
7450;SDS011;3767;42.688;23.360;2022-10-31T14:34:22;20.95;;;7.75;;
7450;SDS011;3767;42.688;23.360;2022-10-31T14:36:52;10.20;;;4.88;;
7450;SDS011;3767;42.688;23.360;2022-10-31T14:39:25;12.35;;;5.03;;
7450;SDS011;3767;42.688;23.360;2022-10-31T14:41:59;16.20;;;6.53;;
7450;SDS011;3767;42.688;23.360;2022-10-31T14:44:38;17.55;;;6.45;;
7450;SDS011;3767;42.688;23.360;2022-10-31T14:47:09;15.88;;;6.10;;
7450;SDS011;3767;42.688;23.360;2022-10-31T14:49:43;22.45;;;7.38;;
7450;SDS011;3767;42.688;23.360;2022-10-31T14:52:13;12.00;;;4.93;;
7450;SDS011;3767;42.688;23.360;2022-10-31T14:54:42;15.38;;;5.35;;
7450;SDS011;3767;42.688;23.360;2022-10-31T14:57:13;13.25;;;5.78;;
7450;SDS011;3767;42.688;23.360;2022-10-31T14:59:41;16.40;;;6.25;;
7450;SDS011;3767;42.688;23.360;2022-10-31T15:02:12;14.50;;;5.80;;
7450;SDS011;3767;42.688;23.360;2022-10-31T15:04:41;14.45;;;5.32;;